createdAt,value
2019-03-25T00:02:26.432Z,20.53
2019-03-25T00:06:40.148Z,20.80
2019-03-25T00:10:53.361Z,22.20
2019-03-25T00:15:06.435Z,23.63
2019-03-25T00:19:20.654Z,19.13
2019-03-25T00:23:34.318Z,17.67
2019-03-25T00:27:47.960Z,19.57
2019-03-25T00:32:01.172Z,19.00
2019-03-25T00:36:13.995Z,22.27
2019-03-25T00:40:26.932Z,16.93
2019-03-25T00:44:40.592Z,24.40
2019-03-25T00:48:53.968Z,19.20
2019-03-25T00:53:07.247Z,16.33
2019-03-25T00:57:20.074Z,15.27
2019-03-25T01:01:33.201Z,14.63
2019-03-25T01:05:46.638Z,11.87
2019-03-25T01:10:00.373Z,13.93
2019-03-25T01:14:13.728Z,12.43
2019-03-25T01:18:27.025Z,11.43
2019-03-25T01:22:39.988Z,11.13
2019-03-25T01:26:53.027Z,10.30
2019-03-25T01:31:06.257Z,13.10
2019-03-25T01:35:19.076Z,10.27
2019-03-25T01:39:32.012Z,13.53
2019-03-25T01:43:45.138Z,11.07
2019-03-25T01:47:58.550Z,13.63
2019-03-25T01:52:11.571Z,12.93
2019-03-25T01:56:24.637Z,11.70
2019-03-25T02:00:38.177Z,10.20
2019-03-25T02:04:51.849Z,12.80
2019-03-25T02:09:06.084Z,7.87
2019-03-25T02:13:19.013Z,8.47
2019-03-25T02:17:32.249Z,9.57
2019-03-25T02:21:45.135Z,9.47
2019-03-25T02:25:58.109Z,9.00
2019-03-25T02:30:11.345Z,8.63
2019-03-25T02:34:24.162Z,8.33
2019-03-25T02:38:37.200Z,8.43
2019-03-25T02:42:50.432Z,6.20
2019-03-25T02:47:03.736Z,8.27
2019-03-25T02:51:16.745Z,7.60
2019-03-25T02:55:41.294Z,11.00
2019-03-25T02:59:44.594Z,11.73
2019-03-25T03:03:57.533Z,6.53
2019-03-25T03:08:10.669Z,8.57
2019-03-25T03:12:23.785Z,6.93
2019-03-25T03:16:37.023Z,8.07
2019-03-25T03:20:50.035Z,6.50
2019-03-25T03:25:03.096Z,9.10
2019-03-25T03:29:16.320Z,8.07
2019-03-25T03:33:29.561Z,7.00
2019-03-25T03:37:42.477Z,9.73
2019-03-25T03:41:55.510Z,8.50
2019-03-25T03:46:08.808Z,6.97
2019-03-25T03:50:29.425Z,8.67
2019-03-25T03:54:42.754Z,7.40
2019-03-25T03:58:56.125Z,9.17
2019-03-25T04:03:09.366Z,5.23
2019-03-25T04:07:22.938Z,8.33
2019-03-25T04:11:36.269Z,5.07
2019-03-25T04:15:49.280Z,6.63
2019-03-25T04:20:02.307Z,7.77
2019-03-25T04:24:15.617Z,5.40
2019-03-25T04:28:28.773Z,5.83
2019-03-25T04:32:41.701Z,6.53
2019-03-25T04:36:54.833Z,5.10
2019-03-25T04:41:08.075Z,7.30
2019-03-25T04:45:20.994Z,4.33
2019-03-25T04:49:34.018Z,8.73
2019-03-25T04:53:47.428Z,8.47
2019-03-25T04:58:01.134Z,6.37
2019-03-25T05:02:14.347Z,5.57
2019-03-25T05:06:27.278Z,5.13
2019-03-25T05:10:40.300Z,5.53
2019-03-25T05:14:53.541Z,4.00
2019-03-25T05:19:06.778Z,6.43
2019-03-25T05:23:19.708Z,6.50
2019-03-25T05:27:32.792Z,5.80
2019-03-25T05:31:46.075Z,6.70
2019-03-25T05:35:58.998Z,7.37
2019-03-25T05:40:12.126Z,9.63
2019-03-25T05:44:25.382Z,9.03
2019-03-25T05:48:38.668Z,6.37
2019-03-25T05:52:51.792Z,6.13
2019-03-25T05:57:06.091Z,8.60
2019-03-25T06:01:19.177Z,7.43
2019-03-25T06:05:32.152Z,9.97
2019-03-25T06:09:45.492Z,10.67
2019-03-25T06:13:59.157Z,4.13
2019-03-25T06:18:12.801Z,5.83
2019-03-25T06:22:26.448Z,5.87
2019-03-25T06:26:40.089Z,7.97
2019-03-25T06:30:53.360Z,6.43
2019-03-25T06:35:08.686Z,6.00
2019-03-25T06:39:20.796Z,7.23
2019-03-25T06:43:34.033Z,5.97
2019-03-25T06:47:46.916Z,5.00
2019-03-25T06:51:59.953Z,6.63
2019-03-25T06:56:13.223Z,6.67
2019-03-25T07:00:26.540Z,5.13
2019-03-25T07:04:39.491Z,5.57
2019-03-25T07:08:52.621Z,2.83
2019-03-25T07:13:06.057Z,4.57
2019-03-25T07:17:19.729Z,4.17
2019-03-25T07:21:33.371Z,6.50
2019-03-25T07:25:46.590Z,10.47
2019-03-25T07:29:59.820Z,7.53
2019-03-25T07:34:12.941Z,10.30
2019-03-25T07:38:25.982Z,8.80
2019-03-25T07:42:39.213Z,6.03
2019-03-25T07:46:52.782Z,9.13
2019-03-25T07:51:05.644Z,6.37
2019-03-25T07:55:18.872Z,4.17
2019-03-25T07:59:32.065Z,9.50
2019-03-25T08:03:45.058Z,9.67
2019-03-25T08:07:58.151Z,8.23
2019-03-25T08:12:11.345Z,5.63
2019-03-25T08:16:24.581Z,11.43
2019-03-25T08:20:37.510Z,6.73
2019-03-25T08:24:50.536Z,8.87
2019-03-25T08:29:03.663Z,8.13
2019-03-25T08:33:16.663Z,9.47
2019-03-25T08:37:29.796Z,6.43
2019-03-25T08:41:43.073Z,8.63
2019-03-25T08:45:55.893Z,9.00
2019-03-25T08:50:09.267Z,5.53
2019-03-25T08:54:22.373Z,7.63
2019-03-25T08:58:35.600Z,10.63
2019-03-25T09:02:48.423Z,9.37
2019-03-25T09:07:01.548Z,11.77
2019-03-25T09:11:14.790Z,6.47
2019-03-25T09:15:28.028Z,9.27
2019-03-25T09:19:40.973Z,12.13
2019-03-25T09:23:53.990Z,9.73
2019-03-25T09:28:07.116Z,8.07
2019-03-25T09:32:19.981Z,5.77
2019-03-25T09:36:33.073Z,4.60
2019-03-25T09:40:46.740Z,5.73
2019-03-25T09:45:00.396Z,5.00
2019-03-25T09:49:14.132Z,8.07
2019-03-25T09:53:27.410Z,7.33
2019-03-25T09:57:40.682Z,7.80
2019-03-25T10:01:53.608Z,8.47
2019-03-25T10:06:06.744Z,11.87
2019-03-25T10:10:20.173Z,7.33
2019-03-25T10:14:33.428Z,10.17
2019-03-25T10:18:46.655Z,8.13
2019-03-25T10:22:59.581Z,7.03
2019-03-25T10:27:12.623Z,9.23
2019-03-25T10:31:26.398Z,8.20
2019-03-25T10:35:39.757Z,7.23
2019-03-25T10:39:52.933Z,4.27
2019-03-25T10:44:06.017Z,8.73
2019-03-25T10:48:19.085Z,5.77
2019-03-25T10:52:32.757Z,10.73
2019-03-25T10:56:49.240Z,6.63
2019-03-25T11:01:01.355Z,9.17
2019-03-25T11:05:14.695Z,5.60
2019-03-25T11:09:27.936Z,6.20
2019-03-25T11:13:41.045Z,9.77
2019-03-25T11:17:54.005Z,7.70
2019-03-25T11:22:07.430Z,6.57
2019-03-25T11:26:20.657Z,6.87
2019-03-25T11:30:56.010Z,5.93
2019-03-25T11:35:10.717Z,8.27
2019-03-25T11:39:23.715Z,5.03
2019-03-25T11:43:36.749Z,5.70
2019-03-25T11:47:50.751Z,4.87
2019-03-25T11:52:03.893Z,7.90
2019-03-25T11:56:17.702Z,5.43
2019-03-25T12:00:30.913Z,5.53
2019-03-25T12:04:43.875Z,6.03
2019-03-25T12:08:58.721Z,7.80
2019-03-25T12:13:13.245Z,7.43
2019-03-25T12:17:26.601Z,6.03
2019-03-25T12:21:39.540Z,5.60
2019-03-25T12:25:52.571Z,8.10
2019-03-25T12:30:06.172Z,5.77
2019-03-25T12:34:20.594Z,5.33
2019-03-25T12:38:33.597Z,7.13
2019-03-25T12:42:46.732Z,6.70
2019-03-25T12:46:59.867Z,5.53
2019-03-25T12:51:12.872Z,6.23
2019-03-25T12:55:26.007Z,8.70
2019-03-25T12:59:41.583Z,7.37
2019-03-25T13:03:53.841Z,8.13
2019-03-25T13:08:07.000Z,6.50
2019-03-25T13:12:20.299Z,5.83
2019-03-25T13:16:33.969Z,5.70
2019-03-25T13:20:47.819Z,8.63
2019-03-25T13:25:01.027Z,8.77
2019-03-25T13:29:14.163Z,8.57
2019-03-25T13:33:29.335Z,11.70
2019-03-25T13:37:41.659Z,10.47
2019-03-25T13:41:54.384Z,8.07
2019-03-25T13:46:07.407Z,6.87
2019-03-25T13:50:20.974Z,7.97
2019-03-25T13:54:34.722Z,9.90
2019-03-25T13:58:47.936Z,6.50
2019-03-25T14:03:01.168Z,10.53
2019-03-25T14:07:14.093Z,5.43
2019-03-25T14:11:27.130Z,9.20
2019-03-25T14:15:40.793Z,5.10
2019-03-25T14:19:54.436Z,11.57
2019-03-25T14:24:10.066Z,8.63
2019-03-25T14:28:23.136Z,5.53
2019-03-25T14:32:35.862Z,8.00
2019-03-25T14:36:48.789Z,9.77
2019-03-25T14:41:02.025Z,9.97
2019-03-25T14:45:25.893Z,7.23
2019-03-25T14:49:29.454Z,9.70
2019-03-25T14:53:45.127Z,7.43
2019-03-25T14:57:58.189Z,10.67
2019-03-25T15:02:11.475Z,10.60
2019-03-25T15:06:24.305Z,7.77
2019-03-25T15:10:37.333Z,10.97
2019-03-25T15:14:53.736Z,10.27
2019-03-25T15:19:07.607Z,10.23
2019-03-25T15:23:21.251Z,6.67
2019-03-25T15:27:34.896Z,6.90
2019-03-25T15:31:48.147Z,7.83
2019-03-25T15:36:01.053Z,9.73
2019-03-25T15:40:14.673Z,9.60
2019-03-25T15:44:27.655Z,10.30
2019-03-25T15:48:40.839Z,7.53
2019-03-25T15:52:55.335Z,9.37
2019-03-25T15:57:08.624Z,9.97
2019-03-25T16:01:21.776Z,5.47
2019-03-25T16:05:34.597Z,11.10
2019-03-25T16:09:47.536Z,11.07
2019-03-25T16:14:00.764Z,7.73
2019-03-25T16:18:34.891Z,8.43
2019-03-25T16:22:48.022Z,5.93
2019-03-25T16:27:01.260Z,7.10
2019-03-25T16:31:14.245Z,8.87
2019-03-25T16:35:27.321Z,6.63
2019-03-25T16:39:40.775Z,8.13
2019-03-25T16:43:54.096Z,6.83
2019-03-25T16:48:07.016Z,8.83
2019-03-25T16:52:20.113Z,9.73
2019-03-25T16:56:34.425Z,8.87
2019-03-25T17:00:47.414Z,6.90
2019-03-25T17:05:00.717Z,6.93
2019-03-25T17:09:13.929Z,8.83
2019-03-25T17:13:26.872Z,7.83
2019-03-25T17:17:39.986Z,9.40
2019-03-25T17:21:57.996Z,8.53
2019-03-25T17:26:08.814Z,10.53
2019-03-25T17:30:23.675Z,6.87
2019-03-25T17:34:36.489Z,8.37
2019-03-25T17:38:49.522Z,8.40
2019-03-25T17:43:02.753Z,6.97
2019-03-25T17:47:16.703Z,6.30
2019-03-25T17:51:29.841Z,9.17
2019-03-25T17:55:43.142Z,10.70
2019-03-25T17:59:56.269Z,9.47
2019-03-25T18:04:09.300Z,8.60
2019-03-25T18:08:22.574Z,11.63
2019-03-25T18:12:38.978Z,9.30
2019-03-25T18:16:50.064Z,9.40
2019-03-25T18:21:03.634Z,12.00
2019-03-25T18:25:16.841Z,8.43
2019-03-25T18:29:30.076Z,9.77
2019-03-25T18:33:43.109Z,6.90
2019-03-25T18:37:56.147Z,9.03
2019-03-25T18:42:09.380Z,12.93
2019-03-25T18:46:22.192Z,9.63
2019-03-25T18:50:35.224Z,13.77
2019-03-25T18:54:48.540Z,7.97
2019-03-25T18:59:01.959Z,11.30
2019-03-25T19:03:14.927Z,10.93
2019-03-25T19:07:28.220Z,9.70
2019-03-25T19:11:41.549Z,8.93
2019-03-25T19:15:55.170Z,11.17
2019-03-25T19:20:08.586Z,11.03
2019-03-25T19:24:21.855Z,9.40
2019-03-25T19:28:35.200Z,10.63
2019-03-25T19:32:48.098Z,12.90
2019-03-25T19:37:01.417Z,8.53
2019-03-25T19:41:14.654Z,8.50
2019-03-25T19:45:27.950Z,11.17
2019-03-25T19:49:41.688Z,10.07
2019-03-25T19:53:55.920Z,7.83
2019-03-25T19:58:09.113Z,9.33
2019-03-25T20:02:22.602Z,8.30
2019-03-25T20:06:35.952Z,10.30
2019-03-25T20:10:51.219Z,7.67
2019-03-25T20:15:05.621Z,9.00
2019-03-25T20:19:18.872Z,9.10
2019-03-25T20:23:33.097Z,9.87
2019-03-25T20:27:48.673Z,10.70
2019-03-25T20:32:03.482Z,9.00
2019-03-25T20:36:18.088Z,12.67
2019-03-25T20:40:32.297Z,11.80
2019-03-25T20:44:46.005Z,9.87
2019-03-25T20:48:59.647Z,11.10
2019-03-25T20:53:13.294Z,9.23
2019-03-25T20:57:27.090Z,11.60
2019-03-25T21:01:40.459Z,10.63
2019-03-25T21:05:54.131Z,11.43
2019-03-25T21:10:07.483Z,12.50
2019-03-25T21:14:21.523Z,11.90
2019-03-25T21:18:34.927Z,9.83
2019-03-25T21:22:48.614Z,13.27
2019-03-25T21:27:01.996Z,12.87
2019-03-25T21:31:14.756Z,12.63
2019-03-25T21:35:29.093Z,8.13
2019-03-25T21:39:42.510Z,16.00
2019-03-25T21:43:55.463Z,18.40
2019-03-25T21:48:08.463Z,15.23
2019-03-25T21:52:21.676Z,12.77
2019-03-25T21:56:35.783Z,11.80
2019-03-25T22:00:49.022Z,15.37
2019-03-25T22:05:02.687Z,10.73
2019-03-25T22:09:16.083Z,14.47
2019-03-25T22:13:29.237Z,12.30
2019-03-25T22:17:42.128Z,15.40
2019-03-25T22:21:55.299Z,11.20
2019-03-25T22:26:09.019Z,13.30
2019-03-25T22:30:22.422Z,12.63
2019-03-25T22:34:35.617Z,15.90
2019-03-25T22:38:48.544Z,12.90
2019-03-25T22:43:01.572Z,15.50
2019-03-25T22:47:14.897Z,15.73
2019-03-25T22:51:30.278Z,11.33
2019-03-25T22:55:44.300Z,13.37
2019-03-25T22:59:57.549Z,12.23
2019-03-25T23:04:11.251Z,16.33
2019-03-25T23:08:24.469Z,13.83
2019-03-25T23:12:37.288Z,13.10
2019-03-25T23:16:50.342Z,12.10
2019-03-25T23:21:03.725Z,12.97
2019-03-25T23:25:16.481Z,11.30
2019-03-25T23:29:31.349Z,15.77
2019-03-25T23:33:52.119Z,14.13
2019-03-25T23:37:59.825Z,11.00
2019-03-25T23:42:13.110Z,12.87
2019-03-25T23:46:26.341Z,17.13
2019-03-25T23:50:39.375Z,9.43
2019-03-25T23:54:52.301Z,14.60
2019-03-25T23:59:05.600Z,14.30
